sensor_id;sensor_type;location;lat;lon;timestamp;P1;durP1;ratioP1;P2;durP2;ratioP2
18657;SDS011;9458;50.942;5.074;2023-04-25T00:02:15;8.63;;;3.63;;
18657;SDS011;9458;50.942;5.074;2023-04-25T00:04:55;10.50;;;4.00;;
18657;SDS011;9458;50.942;5.074;2023-04-25T00:07:43;7.70;;;3.20;;
18657;SDS011;9458;50.942;5.074;2023-04-25T00:10:19;10.60;;;4.05;;
18657;SDS011;9458;50.942;5.074;2023-04-25T00:12:51;8.48;;;3.40;;
18657;SDS011;9458;50.942;5.074;2023-04-25T00:15:22;12.23;;;3.78;;
18657;SDS011;9458;50.942;5.074;2023-04-25T00:17:53;9.00;;;3.45;;
18657;SDS011;9458;50.942;5.074;2023-04-25T00:20:25;9.85;;;4.20;;
18657;SDS011;9458;50.942;5.074;2023-04-25T00:22:56;11.70;;;4.28;;
18657;SDS011;9458;50.942;5.074;2023-04-25T00:25:24;12.88;;;4.45;;
18657;SDS011;9458;50.942;5.074;2023-04-25T00:28:02;11.07;;;4.32;;
18657;SDS011;9458;50.942;5.074;2023-04-25T00:30:33;13.13;;;4.53;;
18657;SDS011;9458;50.942;5.074;2023-04-25T00:33:04;8.77;;;3.97;;
18657;SDS011;9458;50.942;5.074;2023-04-25T00:35:35;10.25;;;4.28;;
18657;SDS011;9458;50.942;5.074;2023-04-25T00:38:07;11.70;;;3.97;;
18657;SDS011;9458;50.942;5.074;2023-04-25T00:40:41;13.60;;;4.68;;
18657;SDS011;9458;50.942;5.074;2023-04-25T00:43:19;8.38;;;4.13;;
18657;SDS011;9458;50.942;5.074;2023-04-25T00:45:49;12.98;;;3.85;;
18657;SDS011;9458;50.942;5.074;2023-04-25T00:48:21;11.70;;;3.60;;
18657;SDS011;9458;50.942;5.074;2023-04-25T00:50:53;13.10;;;4.18;;
18657;SDS011;9458;50.942;5.074;2023-04-25T00:53:25;12.50;;;3.55;;
18657;SDS011;9458;50.942;5.074;2023-04-25T00:55:59;16.48;;;4.03;;
18657;SDS011;9458;50.942;5.074;2023-04-25T00:58:29;15.57;;;4.47;;
18657;SDS011;9458;50.942;5.074;2023-04-25T01:00:57;9.60;;;3.67;;
18657;SDS011;9458;50.942;5.074;2023-04-25T01:03:25;11.02;;;4.15;;
18657;SDS011;9458;50.942;5.074;2023-04-25T01:05:59;10.85;;;3.63;;
18657;SDS011;9458;50.942;5.074;2023-04-25T01:08:34;13.07;;;3.70;;
18657;SDS011;9458;50.942;5.074;2023-04-25T01:11:03;7.47;;;3.67;;
18657;SDS011;9458;50.942;5.074;2023-04-25T01:13:40;9.32;;;4.03;;
18657;SDS011;9458;50.942;5.074;2023-04-25T01:16:09;8.90;;;4.13;;
18657;SDS011;9458;50.942;5.074;2023-04-25T01:18:41;11.63;;;3.53;;
18657;SDS011;9458;50.942;5.074;2023-04-25T01:21:12;14.88;;;4.00;;
18657;SDS011;9458;50.942;5.074;2023-04-25T01:23:40;12.13;;;4.43;;
18657;SDS011;9458;50.942;5.074;2023-04-25T01:26:09;11.95;;;3.78;;
18657;SDS011;9458;50.942;5.074;2023-04-25T01:28:38;9.88;;;3.83;;
18657;SDS011;9458;50.942;5.074;2023-04-25T01:31:08;12.63;;;3.60;;
18657;SDS011;9458;50.942;5.074;2023-04-25T01:33:36;9.80;;;4.18;;
18657;SDS011;9458;50.942;5.074;2023-04-25T01:36:04;12.18;;;4.28;;
18657;SDS011;9458;50.942;5.074;2023-04-25T01:38:35;8.45;;;4.30;;
18657;SDS011;9458;50.942;5.074;2023-04-25T01:41:05;16.48;;;4.07;;
18657;SDS011;9458;50.942;5.074;2023-04-25T01:43:35;10.43;;;4.20;;
18657;SDS011;9458;50.942;5.074;2023-04-25T01:46:04;12.65;;;4.30;;
18657;SDS011;9458;50.942;5.074;2023-04-25T01:48:36;14.02;;;4.35;;
18657;SDS011;9458;50.942;5.074;2023-04-25T01:51:05;12.02;;;4.72;;
18657;SDS011;9458;50.942;5.074;2023-04-25T01:53:32;19.38;;;4.65;;
18657;SDS011;9458;50.942;5.074;2023-04-25T01:56:02;15.52;;;4.30;;
18657;SDS011;9458;50.942;5.074;2023-04-25T01:58:32;10.02;;;4.38;;
18657;SDS011;9458;50.942;5.074;2023-04-25T02:01:03;13.27;;;4.72;;
18657;SDS011;9458;50.942;5.074;2023-04-25T02:03:36;15.85;;;4.57;;
18657;SDS011;9458;50.942;5.074;2023-04-25T02:06:14;14.23;;;4.78;;
18657;SDS011;9458;50.942;5.074;2023-04-25T02:08:44;11.57;;;5.15;;
18657;SDS011;9458;50.942;5.074;2023-04-25T02:11:11;14.00;;;3.90;;
18657;SDS011;9458;50.942;5.074;2023-04-25T02:13:47;14.15;;;5.00;;
18657;SDS011;9458;50.942;5.074;2023-04-25T02:16:15;8.20;;;4.05;;
18657;SDS011;9458;50.942;5.074;2023-04-25T02:18:43;14.23;;;4.43;;
18657;SDS011;9458;50.942;5.074;2023-04-25T02:21:11;10.05;;;3.83;;
18657;SDS011;9458;50.942;5.074;2023-04-25T02:23:39;12.85;;;4.15;;
18657;SDS011;9458;50.942;5.074;2023-04-25T02:26:09;13.45;;;4.47;;
18657;SDS011;9458;50.942;5.074;2023-04-25T02:28:38;10.35;;;4.03;;
18657;SDS011;9458;50.942;5.074;2023-04-25T02:31:06;12.02;;;4.32;;
18657;SDS011;9458;50.942;5.074;2023-04-25T02:33:35;11.25;;;4.13;;
18657;SDS011;9458;50.942;5.074;2023-04-25T02:36:02;14.98;;;4.50;;
18657;SDS011;9458;50.942;5.074;2023-04-25T02:38:31;9.07;;;4.07;;
18657;SDS011;9458;50.942;5.074;2023-04-25T02:41:01;13.75;;;4.07;;
18657;SDS011;9458;50.942;5.074;2023-04-25T02:43:36;12.30;;;4.32;;
18657;SDS011;9458;50.942;5.074;2023-04-25T02:46:03;11.32;;;3.45;;
18657;SDS011;9458;50.942;5.074;2023-04-25T02:48:31;16.17;;;4.38;;
18657;SDS011;9458;50.942;5.074;2023-04-25T02:50:58;7.43;;;3.67;;
18657;SDS011;9458;50.942;5.074;2023-04-25T02:53:26;9.80;;;4.50;;
18657;SDS011;9458;50.942;5.074;2023-04-25T02:55:54;11.35;;;4.45;;
18657;SDS011;9458;50.942;5.074;2023-04-25T02:58:24;11.27;;;3.90;;
18657;SDS011;9458;50.942;5.074;2023-04-25T03:00:56;10.80;;;4.10;;
18657;SDS011;9458;50.942;5.074;2023-04-25T03:03:24;8.63;;;4.05;;
18657;SDS011;9458;50.942;5.074;2023-04-25T03:05:52;13.82;;;5.25;;
18657;SDS011;9458;50.942;5.074;2023-04-25T03:08:19;14.57;;;4.70;;
18657;SDS011;9458;50.942;5.074;2023-04-25T03:10:48;12.15;;;4.28;;
18657;SDS011;9458;50.942;5.074;2023-04-25T03:13:23;16.95;;;4.53;;
18657;SDS011;9458;50.942;5.074;2023-04-25T03:15:51;11.90;;;4.60;;
18657;SDS011;9458;50.942;5.074;2023-04-25T03:18:23;12.98;;;4.22;;
18657;SDS011;9458;50.942;5.074;2023-04-25T03:20:51;12.63;;;4.45;;
18657;SDS011;9458;50.942;5.074;2023-04-25T03:23:19;9.30;;;4.43;;
18657;SDS011;9458;50.942;5.074;2023-04-25T03:25:47;12.00;;;4.28;;
18657;SDS011;9458;50.942;5.074;2023-04-25T03:28:14;15.55;;;4.35;;
18657;SDS011;9458;50.942;5.074;2023-04-25T03:30:41;10.68;;;4.63;;
18657;SDS011;9458;50.942;5.074;2023-04-25T03:33:12;15.32;;;4.53;;
18657;SDS011;9458;50.942;5.074;2023-04-25T03:35:41;10.45;;;4.50;;
18657;SDS011;9458;50.942;5.074;2023-04-25T03:38:09;15.60;;;4.18;;
18657;SDS011;9458;50.942;5.074;2023-04-25T03:40:36;13.80;;;4.38;;
18657;SDS011;9458;50.942;5.074;2023-04-25T03:43:03;12.57;;;4.40;;
18657;SDS011;9458;50.942;5.074;2023-04-25T03:45:31;10.63;;;4.30;;
18657;SDS011;9458;50.942;5.074;2023-04-25T03:47:59;13.20;;;4.45;;
18657;SDS011;9458;50.942;5.074;2023-04-25T03:50:27;13.45;;;4.70;;
18657;SDS011;9458;50.942;5.074;2023-04-25T03:52:56;16.80;;;4.90;;
18657;SDS011;9458;50.942;5.074;2023-04-25T03:55:26;13.07;;;4.80;;
18657;SDS011;9458;50.942;5.074;2023-04-25T03:57:54;11.05;;;4.20;;
18657;SDS011;9458;50.942;5.074;2023-04-25T04:00:23;12.30;;;5.13;;
18657;SDS011;9458;50.942;5.074;2023-04-25T04:02:51;12.30;;;4.30;;
18657;SDS011;9458;50.942;5.074;2023-04-25T04:05:23;14.80;;;4.60;;
18657;SDS011;9458;50.942;5.074;2023-04-25T04:07:51;13.82;;;5.57;;
18657;SDS011;9458;50.942;5.074;2023-04-25T04:10:21;12.25;;;4.47;;
18657;SDS011;9458;50.942;5.074;2023-04-25T04:12:49;17.23;;;4.82;;
18657;SDS011;9458;50.942;5.074;2023-04-25T04:15:18;10.52;;;4.30;;
18657;SDS011;9458;50.942;5.074;2023-04-25T04:17:45;11.52;;;4.25;;
18657;SDS011;9458;50.942;5.074;2023-04-25T04:20:14;10.20;;;4.22;;
18657;SDS011;9458;50.942;5.074;2023-04-25T04:22:42;10.63;;;4.57;;
18657;SDS011;9458;50.942;5.074;2023-04-25T04:25:09;10.25;;;4.47;;
18657;SDS011;9458;50.942;5.074;2023-04-25T04:27:39;12.13;;;4.85;;
18657;SDS011;9458;50.942;5.074;2023-04-25T04:30:07;13.45;;;4.40;;
18657;SDS011;9458;50.942;5.074;2023-04-25T04:32:35;12.70;;;4.40;;
18657;SDS011;9458;50.942;5.074;2023-04-25T04:35:03;11.43;;;4.22;;
18657;SDS011;9458;50.942;5.074;2023-04-25T04:37:31;10.13;;;3.83;;
18657;SDS011;9458;50.942;5.074;2023-04-25T04:39:59;9.52;;;4.13;;
18657;SDS011;9458;50.942;5.074;2023-04-25T04:42:31;8.50;;;3.70;;
18657;SDS011;9458;50.942;5.074;2023-04-25T04:45:00;12.00;;;4.40;;
18657;SDS011;9458;50.942;5.074;2023-04-25T04:47:29;11.60;;;4.28;;
18657;SDS011;9458;50.942;5.074;2023-04-25T04:49:57;10.65;;;5.03;;
18657;SDS011;9458;50.942;5.074;2023-04-25T04:52:25;9.32;;;4.30;;
18657;SDS011;9458;50.942;5.074;2023-04-25T04:54:52;10.30;;;3.88;;
18657;SDS011;9458;50.942;5.074;2023-04-25T04:57:19;10.90;;;4.70;;
18657;SDS011;9458;50.942;5.074;2023-04-25T04:59:48;12.25;;;4.43;;
18657;SDS011;9458;50.942;5.074;2023-04-25T05:02:17;9.68;;;4.32;;
18657;SDS011;9458;50.942;5.074;2023-04-25T05:04:45;9.27;;;5.03;;
18657;SDS011;9458;50.942;5.074;2023-04-25T05:07:13;8.43;;;4.70;;
18657;SDS011;9458;50.942;5.074;2023-04-25T05:09:40;9.52;;;4.63;;
18657;SDS011;9458;50.942;5.074;2023-04-25T05:12:08;11.75;;;5.10;;
18657;SDS011;9458;50.942;5.074;2023-04-25T05:14:36;9.00;;;5.10;;
18657;SDS011;9458;50.942;5.074;2023-04-25T05:17:03;13.93;;;5.00;;
18657;SDS011;9458;50.942;5.074;2023-04-25T05:19:35;12.55;;;5.13;;
18657;SDS011;9458;50.942;5.074;2023-04-25T05:22:02;12.88;;;5.57;;
18657;SDS011;9458;50.942;5.074;2023-04-25T05:24:29;11.95;;;4.82;;
18657;SDS011;9458;50.942;5.074;2023-04-25T05:26:56;17.48;;;5.47;;
18657;SDS011;9458;50.942;5.074;2023-04-25T05:29:24;12.30;;;4.93;;
18657;SDS011;9458;50.942;5.074;2023-04-25T05:31:52;12.13;;;4.88;;
18657;SDS011;9458;50.942;5.074;2023-04-25T05:34:19;9.95;;;4.95;;
18657;SDS011;9458;50.942;5.074;2023-04-25T05:36:48;15.60;;;5.22;;
18657;SDS011;9458;50.942;5.074;2023-04-25T05:39:16;14.40;;;6.00;;
18657;SDS011;9458;50.942;5.074;2023-04-25T05:41:43;14.50;;;5.40;;
18657;SDS011;9458;50.942;5.074;2023-04-25T05:44:11;12.35;;;5.65;;
18657;SDS011;9458;50.942;5.074;2023-04-25T05:46:38;15.15;;;5.20;;
18657;SDS011;9458;50.942;5.074;2023-04-25T05:49:06;11.77;;;6.30;;
18657;SDS011;9458;50.942;5.074;2023-04-25T05:51:33;14.63;;;7.05;;
18657;SDS011;9458;50.942;5.074;2023-04-25T05:54:02;12.98;;;6.57;;
18657;SDS011;9458;50.942;5.074;2023-04-25T05:56:30;16.05;;;6.85;;
18657;SDS011;9458;50.942;5.074;2023-04-25T05:58:58;14.93;;;6.65;;
18657;SDS011;9458;50.942;5.074;2023-04-25T06:01:26;16.02;;;6.43;;
18657;SDS011;9458;50.942;5.074;2023-04-25T06:04:03;12.73;;;6.15;;
18657;SDS011;9458;50.942;5.074;2023-04-25T06:06:31;17.65;;;6.18;;
18657;SDS011;9458;50.942;5.074;2023-04-25T06:08:59;12.75;;;6.28;;
18657;SDS011;9458;50.942;5.074;2023-04-25T06:11:28;18.25;;;6.95;;
18657;SDS011;9458;50.942;5.074;2023-04-25T06:13:55;14.77;;;6.00;;
18657;SDS011;9458;50.942;5.074;2023-04-25T06:16:23;16.98;;;6.05;;
18657;SDS011;9458;50.942;5.074;2023-04-25T06:18:51;9.57;;;5.32;;
18657;SDS011;9458;50.942;5.074;2023-04-25T06:21:18;18.30;;;6.07;;
18657;SDS011;9458;50.942;5.074;2023-04-25T06:23:46;15.32;;;6.68;;
18657;SDS011;9458;50.942;5.074;2023-04-25T06:26:13;13.13;;;5.93;;
18657;SDS011;9458;50.942;5.074;2023-04-25T06:28:42;20.48;;;6.65;;
18657;SDS011;9458;50.942;5.074;2023-04-25T06:31:10;13.95;;;6.03;;
18657;SDS011;9458;50.942;5.074;2023-04-25T06:33:38;15.10;;;5.95;;
18657;SDS011;9458;50.942;5.074;2023-04-25T06:36:05;15.73;;;5.53;;
18657;SDS011;9458;50.942;5.074;2023-04-25T06:38:33;14.63;;;5.68;;
18657;SDS011;9458;50.942;5.074;2023-04-25T06:41:01;16.23;;;5.85;;
18657;SDS011;9458;50.942;5.074;2023-04-25T06:43:31;16.33;;;6.05;;
18657;SDS011;9458;50.942;5.074;2023-04-25T06:46:02;14.80;;;5.35;;
18657;SDS011;9458;50.942;5.074;2023-04-25T06:48:30;16.67;;;5.70;;
18657;SDS011;9458;50.942;5.074;2023-04-25T06:50:57;13.63;;;5.50;;
18657;SDS011;9458;50.942;5.074;2023-04-25T06:53:25;12.90;;;5.50;;
18657;SDS011;9458;50.942;5.074;2023-04-25T06:55:53;11.30;;;5.13;;
18657;SDS011;9458;50.942;5.074;2023-04-25T06:58:21;11.18;;;5.25;;
18657;SDS011;9458;50.942;5.074;2023-04-25T07:00:49;17.20;;;5.68;;
18657;SDS011;9458;50.942;5.074;2023-04-25T07:03:20;10.57;;;5.32;;
18657;SDS011;9458;50.942;5.074;2023-04-25T07:05:47;14.15;;;5.05;;
18657;SDS011;9458;50.942;5.074;2023-04-25T07:08:14;10.65;;;4.22;;
18657;SDS011;9458;50.942;5.074;2023-04-25T07:10:42;14.18;;;5.50;;
18657;SDS011;9458;50.942;5.074;2023-04-25T07:13:11;11.63;;;5.05;;
18657;SDS011;9458;50.942;5.074;2023-04-25T07:15:38;13.48;;;4.72;;
18657;SDS011;9458;50.942;5.074;2023-04-25T07:18:07;9.75;;;5.10;;
18657;SDS011;9458;50.942;5.074;2023-04-25T07:20:36;13.50;;;4.72;;
18657;SDS011;9458;50.942;5.074;2023-04-25T07:23:03;11.88;;;4.50;;
18657;SDS011;9458;50.942;5.074;2023-04-25T07:25:31;14.63;;;4.13;;
18657;SDS011;9458;50.942;5.074;2023-04-25T07:27:59;8.10;;;3.67;;
18657;SDS011;9458;50.942;5.074;2023-04-25T07:30:27;9.45;;;3.45;;
18657;SDS011;9458;50.942;5.074;2023-04-25T07:32:55;10.88;;;3.58;;
18657;SDS011;9458;50.942;5.074;2023-04-25T07:35:22;9.40;;;3.22;;
18657;SDS011;9458;50.942;5.074;2023-04-25T07:37:51;8.55;;;3.80;;
18657;SDS011;9458;50.942;5.074;2023-04-25T07:40:19;10.45;;;3.90;;
18657;SDS011;9458;50.942;5.074;2023-04-25T07:42:46;8.85;;;3.47;;
18657;SDS011;9458;50.942;5.074;2023-04-25T07:45:14;9.38;;;3.40;;
18657;SDS011;9458;50.942;5.074;2023-04-25T07:47:44;8.80;;;3.05;;
18657;SDS011;9458;50.942;5.074;2023-04-25T07:50:11;8.35;;;3.13;;
18657;SDS011;9458;50.942;5.074;2023-04-25T07:52:40;8.32;;;2.90;;
18657;SDS011;9458;50.942;5.074;2023-04-25T07:55:09;6.63;;;3.15;;
18657;SDS011;9458;50.942;5.074;2023-04-25T07:57:37;9.60;;;3.65;;
18657;SDS011;9458;50.942;5.074;2023-04-25T08:00:05;11.90;;;3.08;;
18657;SDS011;9458;50.942;5.074;2023-04-25T08:02:35;10.55;;;3.28;;
18657;SDS011;9458;50.942;5.074;2023-04-25T08:05:04;9.25;;;2.72;;
18657;SDS011;9458;50.942;5.074;2023-04-25T08:07:33;5.35;;;2.90;;
18657;SDS011;9458;50.942;5.074;2023-04-25T08:10:01;6.70;;;2.92;;
18657;SDS011;9458;50.942;5.074;2023-04-25T08:12:30;8.02;;;2.92;;
18657;SDS011;9458;50.942;5.074;2023-04-25T08:14:58;8.30;;;2.70;;
18657;SDS011;9458;50.942;5.074;2023-04-25T08:17:26;8.43;;;2.75;;
18657;SDS011;9458;50.942;5.074;2023-04-25T08:19:54;8.38;;;2.55;;
18657;SDS011;9458;50.942;5.074;2023-04-25T08:22:22;3.92;;;2.28;;
18657;SDS011;9458;50.942;5.074;2023-04-25T08:24:49;11.73;;;2.95;;
18657;SDS011;9458;50.942;5.074;2023-04-25T08:27:16;8.30;;;3.10;;
18657;SDS011;9458;50.942;5.074;2023-04-25T08:29:48;8.82;;;3.75;;
18657;SDS011;9458;50.942;5.074;2023-04-25T08:32:15;7.15;;;3.10;;
18657;SDS011;9458;50.942;5.074;2023-04-25T08:34:43;5.13;;;2.70;;
18657;SDS011;9458;50.942;5.074;2023-04-25T08:37:10;7.40;;;2.50;;
18657;SDS011;9458;50.942;5.074;2023-04-25T08:39:38;5.60;;;2.70;;
18657;SDS011;9458;50.942;5.074;2023-04-25T08:42:06;6.55;;;2.65;;
18657;SDS011;9458;50.942;5.074;2023-04-25T08:44:35;4.75;;;2.30;;
18657;SDS011;9458;50.942;5.074;2023-04-25T08:47:05;8.88;;;2.53;;
18657;SDS011;9458;50.942;5.074;2023-04-25T08:49:33;7.90;;;3.15;;
18657;SDS011;9458;50.942;5.074;2023-04-25T08:52:02;4.75;;;3.05;;
18657;SDS011;9458;50.942;5.074;2023-04-25T08:54:31;6.82;;;3.10;;
18657;SDS011;9458;50.942;5.074;2023-04-25T08:57:00;6.05;;;2.80;;
18657;SDS011;9458;50.942;5.074;2023-04-25T08:59:29;4.88;;;2.50;;
18657;SDS011;9458;50.942;5.074;2023-04-25T09:01:58;5.65;;;2.90;;
18657;SDS011;9458;50.942;5.074;2023-04-25T09:04:28;5.10;;;3.00;;
18657;SDS011;9458;50.942;5.074;2023-04-25T09:06:57;6.40;;;2.78;;
18657;SDS011;9458;50.942;5.074;2023-04-25T09:09:25;4.82;;;1.98;;
18657;SDS011;9458;50.942;5.074;2023-04-25T09:11:53;3.95;;;1.88;;
18657;SDS011;9458;50.942;5.074;2023-04-25T09:14:21;5.40;;;1.92;;
18657;SDS011;9458;50.942;5.074;2023-04-25T09:16:57;6.20;;;1.75;;
18657;SDS011;9458;50.942;5.074;2023-04-25T09:19:27;4.30;;;1.88;;
18657;SDS011;9458;50.942;5.074;2023-04-25T09:21:58;5.43;;;1.83;;
18657;SDS011;9458;50.942;5.074;2023-04-25T09:24:30;7.78;;;1.80;;
18657;SDS011;9458;50.942;5.074;2023-04-25T09:26:58;4.10;;;1.65;;
18657;SDS011;9458;50.942;5.074;2023-04-25T09:29:30;4.18;;;1.90;;
18657;SDS011;9458;50.942;5.074;2023-04-25T09:32:11;9.10;;;1.80;;
18657;SDS011;9458;50.942;5.074;2023-04-25T09:34:43;4.97;;;1.95;;
18657;SDS011;9458;50.942;5.074;2023-04-25T09:37:16;3.28;;;2.15;;
18657;SDS011;9458;50.942;5.074;2023-04-25T09:39:47;9.38;;;3.20;;
18657;SDS011;9458;50.942;5.074;2023-04-25T09:42:16;4.25;;;2.20;;
18657;SDS011;9458;50.942;5.074;2023-04-25T09:44:44;4.72;;;1.95;;
18657;SDS011;9458;50.942;5.074;2023-04-25T09:47:12;4.38;;;2.25;;
18657;SDS011;9458;50.942;5.074;2023-04-25T09:49:43;6.80;;;2.88;;
18657;SDS011;9458;50.942;5.074;2023-04-25T09:52:13;5.65;;;2.40;;
18657;SDS011;9458;50.942;5.074;2023-04-25T09:54:42;7.10;;;3.22;;
18657;SDS011;9458;50.942;5.074;2023-04-25T09:57:11;4.90;;;2.58;;
18657;SDS011;9458;50.942;5.074;2023-04-25T09:59:43;6.28;;;2.50;;
18657;SDS011;9458;50.942;5.074;2023-04-25T10:02:12;7.28;;;2.17;;
18657;SDS011;9458;50.942;5.074;2023-04-25T10:04:44;7.40;;;2.08;;
18657;SDS011;9458;50.942;5.074;2023-04-25T10:07:28;4.75;;;1.90;;
18657;SDS011;9458;50.942;5.074;2023-04-25T10:10:01;4.70;;;2.10;;
18657;SDS011;9458;50.942;5.074;2023-04-25T10:12:30;5.55;;;2.30;;
18657;SDS011;9458;50.942;5.074;2023-04-25T10:14:59;6.47;;;2.83;;
18657;SDS011;9458;50.942;5.074;2023-04-25T10:17:27;7.35;;;3.03;;
18657;SDS011;9458;50.942;5.074;2023-04-25T10:19:56;4.18;;;2.45;;
18657;SDS011;9458;50.942;5.074;2023-04-25T10:22:26;4.70;;;2.85;;
18657;SDS011;9458;50.942;5.074;2023-04-25T10:24:58;7.85;;;2.55;;
18657;SDS011;9458;50.942;5.074;2023-04-25T10:27:26;6.40;;;2.80;;
18657;SDS011;9458;50.942;5.074;2023-04-25T10:30:00;5.43;;;2.78;;
18657;SDS011;9458;50.942;5.074;2023-04-25T10:32:30;5.53;;;2.92;;
18657;SDS011;9458;50.942;5.074;2023-04-25T10:35:11;4.82;;;2.70;;
18657;SDS011;9458;50.942;5.074;2023-04-25T10:37:56;7.72;;;3.03;;
18657;SDS011;9458;50.942;5.074;2023-04-25T10:40:25;5.13;;;2.60;;
18657;SDS011;9458;50.942;5.074;2023-04-25T10:42:53;5.82;;;2.50;;
18657;SDS011;9458;50.942;5.074;2023-04-25T10:45:21;9.50;;;2.40;;
18657;SDS011;9458;50.942;5.074;2023-04-25T10:47:59;4.25;;;2.13;;
18657;SDS011;9458;50.942;5.074;2023-04-25T10:50:38;5.63;;;2.00;;
18657;SDS011;9458;50.942;5.074;2023-04-25T10:53:13;5.03;;;1.63;;
18657;SDS011;9458;50.942;5.074;2023-04-25T10:55:49;4.22;;;1.80;;
18657;SDS011;9458;50.942;5.074;2023-04-25T10:58:20;4.50;;;1.75;;
18657;SDS011;9458;50.942;5.074;2023-04-25T11:00:49;3.22;;;1.27;;
18657;SDS011;9458;50.942;5.074;2023-04-25T11:03:17;1.08;;;0.90;;
18657;SDS011;9458;50.942;5.074;2023-04-25T11:05:50;3.45;;;1.42;;
18657;SDS011;9458;50.942;5.074;2023-04-25T11:08:21;3.50;;;1.60;;
18657;SDS011;9458;50.942;5.074;2023-04-25T11:11:00;3.53;;;1.20;;
18657;SDS011;9458;50.942;5.074;2023-04-25T11:13:29;2.95;;;1.33;;
18657;SDS011;9458;50.942;5.074;2023-04-25T11:15:56;2.65;;;1.08;;
18657;SDS011;9458;50.942;5.074;2023-04-25T11:18:25;3.85;;;1.10;;
18657;SDS011;9458;50.942;5.074;2023-04-25T11:20:55;1.63;;;1.20;;
18657;SDS011;9458;50.942;5.074;2023-04-25T11:23:23;2.35;;;1.10;;
18657;SDS011;9458;50.942;5.074;2023-04-25T11:25:52;1.38;;;0.88;;
18657;SDS011;9458;50.942;5.074;2023-04-25T11:28:20;3.28;;;1.20;;
18657;SDS011;9458;50.942;5.074;2023-04-25T11:30:49;3.83;;;1.13;;
18657;SDS011;9458;50.942;5.074;2023-04-25T11:33:18;2.13;;;1.20;;
18657;SDS011;9458;50.942;5.074;2023-04-25T11:35:49;4.93;;;1.50;;
18657;SDS011;9458;50.942;5.074;2023-04-25T11:38:19;3.65;;;1.23;;
18657;SDS011;9458;50.942;5.074;2023-04-25T11:40:49;2.75;;;1.40;;
18657;SDS011;9458;50.942;5.074;2023-04-25T11:43:18;2.88;;;1.38;;
18657;SDS011;9458;50.942;5.074;2023-04-25T11:45:47;3.60;;;1.48;;
18657;SDS011;9458;50.942;5.074;2023-04-25T11:48:16;3.95;;;1.40;;
18657;SDS011;9458;50.942;5.074;2023-04-25T11:50:43;4.07;;;1.45;;
18657;SDS011;9458;50.942;5.074;2023-04-25T11:53:11;4.47;;;1.40;;
18657;SDS011;9458;50.942;5.074;2023-04-25T11:55:40;3.67;;;1.77;;
18657;SDS011;9458;50.942;5.074;2023-04-25T11:58:07;4.07;;;1.55;;
18657;SDS011;9458;50.942;5.074;2023-04-25T12:00:35;4.75;;;1.63;;
18657;SDS011;9458;50.942;5.074;2023-04-25T12:03:03;3.20;;;1.88;;
18657;SDS011;9458;50.942;5.074;2023-04-25T12:05:31;4.05;;;1.77;;
18657;SDS011;9458;50.942;5.074;2023-04-25T12:08:09;4.18;;;2.10;;
18657;SDS011;9458;50.942;5.074;2023-04-25T12:10:41;5.15;;;2.50;;
18657;SDS011;9458;50.942;5.074;2023-04-25T12:13:17;3.65;;;1.77;;
18657;SDS011;9458;50.942;5.074;2023-04-25T12:15:49;3.00;;;1.60;;
18657;SDS011;9458;50.942;5.074;2023-04-25T12:18:18;4.22;;;1.60;;
18657;SDS011;9458;50.942;5.074;2023-04-25T12:20:48;4.20;;;1.83;;
18657;SDS011;9458;50.942;5.074;2023-04-25T12:23:15;2.80;;;1.83;;
18657;SDS011;9458;50.942;5.074;2023-04-25T12:25:45;4.47;;;2.10;;
18657;SDS011;9458;50.942;5.074;2023-04-25T12:28:13;3.00;;;1.90;;
18657;SDS011;9458;50.942;5.074;2023-04-25T12:30:54;3.95;;;2.10;;
18657;SDS011;9458;50.942;5.074;2023-04-25T12:33:22;3.22;;;1.60;;
18657;SDS011;9458;50.942;5.074;2023-04-25T12:35:50;5.85;;;1.90;;
18657;SDS011;9458;50.942;5.074;2023-04-25T12:38:22;3.42;;;1.92;;
18657;SDS011;9458;50.942;5.074;2023-04-25T12:40:53;5.70;;;1.80;;
18657;SDS011;9458;50.942;5.074;2023-04-25T12:43:21;3.22;;;1.80;;
18657;SDS011;9458;50.942;5.074;2023-04-25T12:45:48;5.07;;;2.10;;
18657;SDS011;9458;50.942;5.074;2023-04-25T12:48:16;4.45;;;2.42;;
18657;SDS011;9458;50.942;5.074;2023-04-25T12:50:44;5.45;;;1.95;;
18657;SDS011;9458;50.942;5.074;2023-04-25T12:53:14;2.85;;;2.25;;
18657;SDS011;9458;50.942;5.074;2023-04-25T12:55:42;5.18;;;2.60;;
18657;SDS011;9458;50.942;5.074;2023-04-25T12:58:12;5.57;;;2.30;;
18657;SDS011;9458;50.942;5.074;2023-04-25T13:00:40;4.20;;;2.20;;
18657;SDS011;9458;50.942;5.074;2023-04-25T13:03:10;4.32;;;2.20;;
18657;SDS011;9458;50.942;5.074;2023-04-25T13:05:37;3.85;;;1.98;;
18657;SDS011;9458;50.942;5.074;2023-04-25T13:08:05;4.25;;;2.33;;
18657;SDS011;9458;50.942;5.074;2023-04-25T13:10:33;4.10;;;1.92;;
18657;SDS011;9458;50.942;5.074;2023-04-25T13:13:01;3.35;;;1.92;;
18657;SDS011;9458;50.942;5.074;2023-04-25T13:15:30;3.65;;;1.75;;
18657;SDS011;9458;50.942;5.074;2023-04-25T13:17:58;4.38;;;1.77;;
18657;SDS011;9458;50.942;5.074;2023-04-25T13:20:27;4.03;;;1.60;;
18657;SDS011;9458;50.942;5.074;2023-04-25T13:22:55;3.17;;;1.67;;
18657;SDS011;9458;50.942;5.074;2023-04-25T13:25:22;3.15;;;1.67;;
18657;SDS011;9458;50.942;5.074;2023-04-25T13:27:51;3.13;;;1.88;;
18657;SDS011;9458;50.942;5.074;2023-04-25T13:30:18;3.17;;;1.60;;
18657;SDS011;9458;50.942;5.074;2023-04-25T13:32:48;2.50;;;1.60;;
18657;SDS011;9458;50.942;5.074;2023-04-25T13:35:17;2.85;;;1.50;;
18657;SDS011;9458;50.942;5.074;2023-04-25T13:37:45;4.13;;;1.65;;
18657;SDS011;9458;50.942;5.074;2023-04-25T13:40:12;4.45;;;1.83;;
18657;SDS011;9458;50.942;5.074;2023-04-25T13:42:41;2.70;;;1.20;;
18657;SDS011;9458;50.942;5.074;2023-04-25T13:45:13;2.38;;;1.40;;
18657;SDS011;9458;50.942;5.074;2023-04-25T13:47:41;1.83;;;1.30;;
18657;SDS011;9458;50.942;5.074;2023-04-25T13:50:10;2.53;;;1.30;;
18657;SDS011;9458;50.942;5.074;2023-04-25T13:52:38;2.20;;;1.20;;
18657;SDS011;9458;50.942;5.074;2023-04-25T13:55:07;2.65;;;1.40;;
18657;SDS011;9458;50.942;5.074;2023-04-25T13:57:35;2.20;;;1.25;;
18657;SDS011;9458;50.942;5.074;2023-04-25T14:00:04;3.85;;;1.58;;
18657;SDS011;9458;50.942;5.074;2023-04-25T14:02:34;2.63;;;1.25;;
18657;SDS011;9458;50.942;5.074;2023-04-25T14:05:01;2.45;;;1.30;;
18657;SDS011;9458;50.942;5.074;2023-04-25T14:07:34;6.28;;;1.50;;
18657;SDS011;9458;50.942;5.074;2023-04-25T14:10:02;3.00;;;1.52;;
18657;SDS011;9458;50.942;5.074;2023-04-25T14:12:35;2.72;;;1.30;;
18657;SDS011;9458;50.942;5.074;2023-04-25T14:15:09;2.20;;;1.02;;
18657;SDS011;9458;50.942;5.074;2023-04-25T14:17:38;2.28;;;1.20;;
18657;SDS011;9458;50.942;5.074;2023-04-25T14:20:06;4.45;;;1.50;;
18657;SDS011;9458;50.942;5.074;2023-04-25T14:22:37;2.78;;;1.15;;
18657;SDS011;9458;50.942;5.074;2023-04-25T14:25:09;2.38;;;1.30;;
18657;SDS011;9458;50.942;5.074;2023-04-25T14:27:36;3.38;;;1.10;;
18657;SDS011;9458;50.942;5.074;2023-04-25T14:30:04;3.30;;;1.08;;
18657;SDS011;9458;50.942;5.074;2023-04-25T14:32:34;2.60;;;1.20;;
18657;SDS011;9458;50.942;5.074;2023-04-25T14:35:02;2.70;;;1.15;;
18657;SDS011;9458;50.942;5.074;2023-04-25T14:37:30;5.22;;;1.10;;
18657;SDS011;9458;50.942;5.074;2023-04-25T14:40:00;1.92;;;1.20;;
18657;SDS011;9458;50.942;5.074;2023-04-25T14:42:29;3.33;;;0.90;;
18657;SDS011;9458;50.942;5.074;2023-04-25T14:44:57;2.40;;;1.20;;
18657;SDS011;9458;50.942;5.074;2023-04-25T14:47:24;4.13;;;1.10;;
18657;SDS011;9458;50.942;5.074;2023-04-25T14:49:52;3.15;;;1.08;;
18657;SDS011;9458;50.942;5.074;2023-04-25T14:52:19;3.40;;;1.38;;
18657;SDS011;9458;50.942;5.074;2023-04-25T14:54:48;1.73;;;1.10;;
18657;SDS011;9458;50.942;5.074;2023-04-25T14:57:17;3.05;;;1.30;;
18657;SDS011;9458;50.942;5.074;2023-04-25T14:59:44;3.00;;;1.20;;
18657;SDS011;9458;50.942;5.074;2023-04-25T15:02:12;3.63;;;1.30;;
18657;SDS011;9458;50.942;5.074;2023-04-25T15:04:39;2.67;;;1.00;;
18657;SDS011;9458;50.942;5.074;2023-04-25T15:07:07;3.17;;;1.27;;
18657;SDS011;9458;50.942;5.074;2023-04-25T15:09:36;2.42;;;1.00;;